sensor_id;sensor_type;location;lat;lon;timestamp;P1;durP1;ratioP1;P2;durP2;ratioP2
44078;SDS011;29744;49.078;12.878;2023-07-28T00:04:44;0.40;;;0.40;;
44078;SDS011;29744;49.078;12.878;2023-07-28T00:09:45;0.40;;;0.40;;
44078;SDS011;29744;49.078;12.878;2023-07-28T00:14:45;0.40;;;0.40;;
44078;SDS011;29744;49.078;12.878;2023-07-28T00:19:45;0.52;;;0.40;;
44078;SDS011;29744;49.078;12.878;2023-07-28T00:24:46;0.25;;;0.25;;
44078;SDS011;29744;49.078;12.878;2023-07-28T00:29:46;0.40;;;0.40;;
44078;SDS011;29744;49.078;12.878;2023-07-28T00:34:46;0.25;;;0.25;;
44078;SDS011;29744;49.078;12.878;2023-07-28T00:39:47;0.75;;;0.40;;
44078;SDS011;29744;49.078;12.878;2023-07-28T00:44:47;0.43;;;0.30;;
44078;SDS011;29744;49.078;12.878;2023-07-28T00:49:47;0.40;;;0.35;;
44078;SDS011;29744;49.078;12.878;2023-07-28T00:54:48;0.35;;;0.22;;
44078;SDS011;29744;49.078;12.878;2023-07-28T00:59:48;0.32;;;0.32;;
44078;SDS011;29744;49.078;12.878;2023-07-28T01:04:48;0.57;;;0.45;;
44078;SDS011;29744;49.078;12.878;2023-07-28T01:09:51;0.30;;;0.30;;
44078;SDS011;29744;49.078;12.878;2023-07-28T01:14:55;0.90;;;0.30;;
44078;SDS011;29744;49.078;12.878;2023-07-28T01:19:55;0.40;;;0.40;;
44078;SDS011;29744;49.078;12.878;2023-07-28T01:30:33;0.70;;;0.50;;
44078;SDS011;29744;49.078;12.878;2023-07-28T01:35:35;0.30;;;0.30;;
44078;SDS011;29744;49.078;12.878;2023-07-28T01:40:38;0.40;;;0.30;;
44078;SDS011;29744;49.078;12.878;2023-07-28T01:45:38;1.00;;;0.50;;
44078;SDS011;29744;49.078;12.878;2023-07-28T01:50:38;0.47;;;0.40;;
44078;SDS011;29744;49.078;12.878;2023-07-28T01:55:39;0.35;;;0.30;;
44078;SDS011;29744;49.078;12.878;2023-07-28T02:00:39;0.15;;;0.15;;
44078;SDS011;29744;49.078;12.878;2023-07-28T02:05:39;0.30;;;0.30;;
44078;SDS011;29744;49.078;12.878;2023-07-28T02:10:39;0.68;;;0.30;;
44078;SDS011;29744;49.078;12.878;2023-07-28T02:15:40;0.32;;;0.32;;
44078;SDS011;29744;49.078;12.878;2023-07-28T02:20:40;0.45;;;0.20;;
44078;SDS011;29744;49.078;12.878;2023-07-28T02:25:40;0.40;;;0.40;;
44078;SDS011;29744;49.078;12.878;2023-07-28T02:30:41;0.55;;;0.38;;
44078;SDS011;29744;49.078;12.878;2023-07-28T02:35:41;0.70;;;0.40;;
44078;SDS011;29744;49.078;12.878;2023-07-28T02:40:42;0.35;;;0.30;;
44078;SDS011;29744;49.078;12.878;2023-07-28T02:45:43;0.30;;;0.30;;
44078;SDS011;29744;49.078;12.878;2023-07-28T02:50:47;0.52;;;0.40;;
44078;SDS011;29744;49.078;12.878;2023-07-28T02:55:47;1.23;;;0.32;;
44078;SDS011;29744;49.078;12.878;2023-07-28T03:00:48;0.40;;;0.30;;
44078;SDS011;29744;49.078;12.878;2023-07-28T03:05:51;0.30;;;0.30;;
44078;SDS011;29744;49.078;12.878;2023-07-28T03:10:57;0.20;;;0.20;;
44078;SDS011;29744;49.078;12.878;2023-07-28T03:15:58;0.40;;;0.35;;
44078;SDS011;29744;49.078;12.878;2023-07-28T03:20:58;0.30;;;0.30;;
44078;SDS011;29744;49.078;12.878;2023-07-28T03:25:58;0.45;;;0.38;;
44078;SDS011;29744;49.078;12.878;2023-07-28T03:30:59;0.80;;;0.35;;
44078;SDS011;29744;49.078;12.878;2023-07-28T03:35:59;0.30;;;0.30;;
44078;SDS011;29744;49.078;12.878;2023-07-28T03:40:59;0.30;;;0.30;;
44078;SDS011;29744;49.078;12.878;2023-07-28T03:46:00;0.32;;;0.30;;
44078;SDS011;29744;49.078;12.878;2023-07-28T03:51:00;0.50;;;0.45;;
44078;SDS011;29744;49.078;12.878;2023-07-28T03:56:00;0.55;;;0.40;;
44078;SDS011;29744;49.078;12.878;2023-07-28T04:01:01;0.30;;;0.30;;
44078;SDS011;29744;49.078;12.878;2023-07-28T04:06:05;0.30;;;0.25;;
44078;SDS011;29744;49.078;12.878;2023-07-28T04:11:07;0.30;;;0.28;;
44078;SDS011;29744;49.078;12.878;2023-07-28T04:16:07;0.40;;;0.30;;
44078;SDS011;29744;49.078;12.878;2023-07-28T04:21:08;0.30;;;0.30;;
44078;SDS011;29744;49.078;12.878;2023-07-28T04:26:08;0.35;;;0.30;;
44078;SDS011;29744;49.078;12.878;2023-07-28T04:31:09;0.30;;;0.30;;
44078;SDS011;29744;49.078;12.878;2023-07-28T04:36:09;0.55;;;0.40;;
44078;SDS011;29744;49.078;12.878;2023-07-28T04:41:10;0.38;;;0.30;;
44078;SDS011;29744;49.078;12.878;2023-07-28T04:46:10;0.20;;;0.20;;
44078;SDS011;29744;49.078;12.878;2023-07-28T04:51:10;0.50;;;0.40;;
44078;SDS011;29744;49.078;12.878;2023-07-28T04:56:10;0.40;;;0.30;;
44078;SDS011;29744;49.078;12.878;2023-07-28T05:01:11;0.40;;;0.37;;
44078;SDS011;29744;49.078;12.878;2023-07-28T05:06:12;0.30;;;0.30;;
44078;SDS011;29744;49.078;12.878;2023-07-28T05:11:13;0.35;;;0.30;;
44078;SDS011;29744;49.078;12.878;2023-07-28T05:16:13;0.50;;;0.30;;
44078;SDS011;29744;49.078;12.878;2023-07-28T05:21:13;1.05;;;0.50;;
44078;SDS011;29744;49.078;12.878;2023-07-28T05:26:14;0.45;;;0.45;;
44078;SDS011;29744;49.078;12.878;2023-07-28T05:31:14;0.30;;;0.30;;
44078;SDS011;29744;49.078;12.878;2023-07-28T05:36:15;0.95;;;0.47;;
44078;SDS011;29744;49.078;12.878;2023-07-28T05:41:15;0.50;;;0.40;;
44078;SDS011;29744;49.078;12.878;2023-07-28T05:46:15;1.10;;;0.22;;
44078;SDS011;29744;49.078;12.878;2023-07-28T05:51:16;0.35;;;0.35;;
44078;SDS011;29744;49.078;12.878;2023-07-28T05:56:16;0.30;;;0.25;;
44078;SDS011;29744;49.078;12.878;2023-07-28T06:01:18;0.70;;;0.47;;
44078;SDS011;29744;49.078;12.878;2023-07-28T06:06:19;0.63;;;0.47;;
44078;SDS011;29744;49.078;12.878;2023-07-28T06:11:19;0.25;;;0.25;;
44078;SDS011;29744;49.078;12.878;2023-07-28T06:16:20;0.40;;;0.40;;
44078;SDS011;29744;49.078;12.878;2023-07-28T06:21:20;0.40;;;0.30;;
44078;SDS011;29744;49.078;12.878;2023-07-28T06:26:21;0.25;;;0.25;;
44078;SDS011;29744;49.078;12.878;2023-07-28T06:31:21;0.30;;;0.30;;
44078;SDS011;29744;49.078;12.878;2023-07-28T06:36:21;0.32;;;0.30;;
44078;SDS011;29744;49.078;12.878;2023-07-28T06:41:22;0.40;;;0.40;;
44078;SDS011;29744;49.078;12.878;2023-07-28T06:46:23;0.40;;;0.30;;
44078;SDS011;29744;49.078;12.878;2023-07-28T06:51:23;0.50;;;0.40;;
44078;SDS011;29744;49.078;12.878;2023-07-28T06:56:24;0.40;;;0.40;;
44078;SDS011;29744;49.078;12.878;2023-07-28T07:01:25;0.75;;;0.40;;
44078;SDS011;29744;49.078;12.878;2023-07-28T07:06:25;0.52;;;0.30;;
44078;SDS011;29744;49.078;12.878;2023-07-28T07:11:26;0.30;;;0.30;;
44078;SDS011;29744;49.078;12.878;2023-07-28T07:16:26;0.45;;;0.40;;
44078;SDS011;29744;49.078;12.878;2023-07-28T07:21:27;0.30;;;0.30;;
44078;SDS011;29744;49.078;12.878;2023-07-28T07:26:28;0.30;;;0.30;;
44078;SDS011;29744;49.078;12.878;2023-07-28T07:31:28;0.30;;;0.30;;
44078;SDS011;29744;49.078;12.878;2023-07-28T07:36:28;0.20;;;0.20;;
44078;SDS011;29744;49.078;12.878;2023-07-28T07:41:29;0.30;;;0.30;;
44078;SDS011;29744;49.078;12.878;2023-07-28T07:46:30;0.47;;;0.30;;
44078;SDS011;29744;49.078;12.878;2023-07-28T07:51:31;0.30;;;0.30;;
44078;SDS011;29744;49.078;12.878;2023-07-28T07:56:33;0.75;;;0.47;;
44078;SDS011;29744;49.078;12.878;2023-07-28T08:01:33;0.32;;;0.30;;
44078;SDS011;29744;49.078;12.878;2023-07-28T08:06:34;0.22;;;0.22;;
44078;SDS011;29744;49.078;12.878;2023-07-28T08:11:34;0.30;;;0.30;;
44078;SDS011;29744;49.078;12.878;2023-07-28T08:16:34;0.30;;;0.30;;
44078;SDS011;29744;49.078;12.878;2023-07-28T08:21:34;0.60;;;0.43;;
44078;SDS011;29744;49.078;12.878;2023-07-28T08:26:36;0.80;;;0.43;;
44078;SDS011;29744;49.078;12.878;2023-07-28T08:31:36;0.68;;;0.47;;
44078;SDS011;29744;49.078;12.878;2023-07-28T08:36:37;0.40;;;0.40;;
44078;SDS011;29744;49.078;12.878;2023-07-28T08:41:37;0.63;;;0.38;;
44078;SDS011;29744;49.078;12.878;2023-07-28T08:46:37;0.50;;;0.40;;
44078;SDS011;29744;49.078;12.878;2023-07-28T08:51:40;0.47;;;0.38;;
44078;SDS011;29744;49.078;12.878;2023-07-28T08:56:42;0.28;;;0.28;;
44078;SDS011;29744;49.078;12.878;2023-07-28T09:01:43;0.30;;;0.30;;
44078;SDS011;29744;49.078;12.878;2023-07-28T09:06:45;0.30;;;0.30;;
44078;SDS011;29744;49.078;12.878;2023-07-28T09:16:47;0.40;;;0.30;;
44078;SDS011;29744;49.078;12.878;2023-07-28T09:21:56;0.50;;;0.40;;
44078;SDS011;29744;49.078;12.878;2023-07-28T09:26:59;0.38;;;0.35;;
44078;SDS011;29744;49.078;12.878;2023-07-28T09:32:04;0.80;;;0.50;;
44078;SDS011;29744;49.078;12.878;2023-07-28T09:37:05;0.65;;;0.45;;
44078;SDS011;29744;49.078;12.878;2023-07-28T09:42:09;0.60;;;0.40;;
44078;SDS011;29744;49.078;12.878;2023-07-28T09:47:10;0.30;;;0.30;;
44078;SDS011;29744;49.078;12.878;2023-07-28T09:52:10;0.35;;;0.30;;
44078;SDS011;29744;49.078;12.878;2023-07-28T09:57:14;0.57;;;0.40;;
44078;SDS011;29744;49.078;12.878;2023-07-28T10:02:19;0.40;;;0.40;;
44078;SDS011;29744;49.078;12.878;2023-07-28T10:07:20;0.35;;;0.30;;
44078;SDS011;29744;49.078;12.878;2023-07-28T10:12:23;0.45;;;0.30;;
44078;SDS011;29744;49.078;12.878;2023-07-28T10:17:30;0.52;;;0.40;;
44078;SDS011;29744;49.078;12.878;2023-07-28T10:22:31;0.70;;;0.43;;
44078;SDS011;29744;49.078;12.878;2023-07-28T10:27:32;0.40;;;0.40;;
44078;SDS011;29744;49.078;12.878;2023-07-28T10:32:40;0.47;;;0.30;;
44078;SDS011;29744;49.078;12.878;2023-07-28T10:37:43;0.50;;;0.40;;
44078;SDS011;29744;49.078;12.878;2023-07-28T10:42:44;0.30;;;0.30;;
44078;SDS011;29744;49.078;12.878;2023-07-28T10:47:45;0.40;;;0.30;;
44078;SDS011;29744;49.078;12.878;2023-07-28T10:52:46;0.47;;;0.40;;
44078;SDS011;29744;49.078;12.878;2023-07-28T10:57:46;0.50;;;0.40;;
44078;SDS011;29744;49.078;12.878;2023-07-28T11:02:49;0.50;;;0.43;;
44078;SDS011;29744;49.078;12.878;2023-07-28T11:07:51;0.30;;;0.30;;
44078;SDS011;29744;49.078;12.878;2023-07-28T11:12:56;0.32;;;0.30;;
44078;SDS011;29744;49.078;12.878;2023-07-28T11:17:58;0.57;;;0.38;;
44078;SDS011;29744;49.078;12.878;2023-07-28T11:22:59;0.57;;;0.40;;
44078;SDS011;29744;49.078;12.878;2023-07-28T11:28:03;0.30;;;0.30;;
44078;SDS011;29744;49.078;12.878;2023-07-28T11:33:08;0.40;;;0.40;;
44078;SDS011;29744;49.078;12.878;2023-07-28T11:38:10;0.40;;;0.40;;
44078;SDS011;29744;49.078;12.878;2023-07-28T11:43:12;0.50;;;0.40;;
44078;SDS011;29744;49.078;12.878;2023-07-28T11:48:12;0.30;;;0.30;;
44078;SDS011;29744;49.078;12.878;2023-07-28T11:53:15;0.38;;;0.30;;
44078;SDS011;29744;49.078;12.878;2023-07-28T11:58:15;0.60;;;0.40;;
44078;SDS011;29744;49.078;12.878;2023-07-28T12:03:16;0.40;;;0.40;;
44078;SDS011;29744;49.078;12.878;2023-07-28T12:08:16;0.28;;;0.28;;
44078;SDS011;29744;49.078;12.878;2023-07-28T12:13:33;0.45;;;0.38;;
44078;SDS011;29744;49.078;12.878;2023-07-28T12:18:47;0.50;;;0.50;;
44078;SDS011;29744;49.078;12.878;2023-07-28T12:23:47;0.57;;;0.35;;
44078;SDS011;29744;49.078;12.878;2023-07-28T12:28:47;0.40;;;0.40;;
44078;SDS011;29744;49.078;12.878;2023-07-28T12:33:48;0.50;;;0.40;;
44078;SDS011;29744;49.078;12.878;2023-07-28T12:38:48;0.68;;;0.40;;
44078;SDS011;29744;49.078;12.878;2023-07-28T12:43:48;0.43;;;0.40;;
44078;SDS011;29744;49.078;12.878;2023-07-28T12:48:48;0.30;;;0.30;;
44078;SDS011;29744;49.078;12.878;2023-07-28T12:53:49;0.60;;;0.50;;
44078;SDS011;29744;49.078;12.878;2023-07-28T12:58:49;0.40;;;0.30;;
44078;SDS011;29744;49.078;12.878;2023-07-28T13:03:50;0.75;;;0.55;;
44078;SDS011;29744;49.078;12.878;2023-07-28T13:08:50;0.55;;;0.40;;
44078;SDS011;29744;49.078;12.878;2023-07-28T13:13:50;0.70;;;0.40;;
44078;SDS011;29744;49.078;12.878;2023-07-28T13:18:51;0.55;;;0.40;;
44078;SDS011;29744;49.078;12.878;2023-07-28T13:23:52;0.50;;;0.50;;
44078;SDS011;29744;49.078;12.878;2023-07-28T13:28:53;0.47;;;0.40;;
44078;SDS011;29744;49.078;12.878;2023-07-28T13:33:53;0.40;;;0.40;;
44078;SDS011;29744;49.078;12.878;2023-07-28T13:38:54;0.30;;;0.30;;
44078;SDS011;29744;49.078;12.878;2023-07-28T13:43:54;0.30;;;0.30;;
44078;SDS011;29744;49.078;12.878;2023-07-28T13:48:54;0.30;;;0.30;;
44078;SDS011;29744;49.078;12.878;2023-07-28T13:53:55;0.40;;;0.40;;
44078;SDS011;29744;49.078;12.878;2023-07-28T13:58:55;0.50;;;0.35;;
44078;SDS011;29744;49.078;12.878;2023-07-28T14:03:56;0.45;;;0.40;;
44078;SDS011;29744;49.078;12.878;2023-07-28T14:08:56;0.35;;;0.35;;
44078;SDS011;29744;49.078;12.878;2023-07-28T14:13:56;0.60;;;0.47;;
44078;SDS011;29744;49.078;12.878;2023-07-28T14:18:57;0.60;;;0.50;;
44078;SDS011;29744;49.078;12.878;2023-07-28T14:23:57;0.60;;;0.40;;
44078;SDS011;29744;49.078;12.878;2023-07-28T14:28:58;0.75;;;0.50;;
44078;SDS011;29744;49.078;12.878;2023-07-28T14:33:58;0.65;;;0.47;;
44078;SDS011;29744;49.078;12.878;2023-07-28T14:38:58;0.40;;;0.40;;
44078;SDS011;29744;49.078;12.878;2023-07-28T14:43:59;0.82;;;0.50;;
44078;SDS011;29744;49.078;12.878;2023-07-28T14:48:59;0.40;;;0.30;;
44078;SDS011;29744;49.078;12.878;2023-07-28T14:53:59;0.37;;;0.30;;
44078;SDS011;29744;49.078;12.878;2023-07-28T14:59:00;0.50;;;0.30;;
44078;SDS011;29744;49.078;12.878;2023-07-28T15:04:03;0.43;;;0.30;;
44078;SDS011;29744;49.078;12.878;2023-07-28T15:09:04;0.60;;;0.40;;
44078;SDS011;29744;49.078;12.878;2023-07-28T15:14:04;0.45;;;0.40;;
44078;SDS011;29744;49.078;12.878;2023-07-28T15:19:05;1.52;;;0.65;;
44078;SDS011;29744;49.078;12.878;2023-07-28T15:24:05;3.90;;;0.90;;
44078;SDS011;29744;49.078;12.878;2023-07-28T15:29:06;3.38;;;0.95;;
44078;SDS011;29744;49.078;12.878;2023-07-28T15:34:07;2.58;;;1.08;;
44078;SDS011;29744;49.078;12.878;2023-07-28T15:39:07;4.95;;;1.15;;
44078;SDS011;29744;49.078;12.878;2023-07-28T15:44:08;1.92;;;1.05;;
44078;SDS011;29744;49.078;12.878;2023-07-28T15:49:10;5.53;;;1.58;;
44078;SDS011;29744;49.078;12.878;2023-07-28T15:54:10;5.40;;;1.60;;
44078;SDS011;29744;49.078;12.878;2023-07-28T15:59:10;4.45;;;1.77;;
44078;SDS011;29744;49.078;12.878;2023-07-28T16:04:11;3.67;;;1.40;;
44078;SDS011;29744;49.078;12.878;2023-07-28T16:09:11;4.13;;;1.58;;
44078;SDS011;29744;49.078;12.878;2023-07-28T16:14:12;4.88;;;1.40;;
44078;SDS011;29744;49.078;12.878;2023-07-28T16:19:12;3.28;;;1.60;;
44078;SDS011;29744;49.078;12.878;2023-07-28T16:24:12;2.83;;;1.20;;
44078;SDS011;29744;49.078;12.878;2023-07-28T16:29:13;3.70;;;1.57;;
44078;SDS011;29744;49.078;12.878;2023-07-28T16:34:13;3.08;;;1.52;;
44078;SDS011;29744;49.078;12.878;2023-07-28T16:39:13;3.37;;;1.50;;
44078;SDS011;29744;49.078;12.878;2023-07-28T16:44:14;4.00;;;1.23;;
44078;SDS011;29744;49.078;12.878;2023-07-28T16:49:14;2.90;;;1.60;;
44078;SDS011;29744;49.078;12.878;2023-07-28T16:54:14;3.20;;;1.33;;
44078;SDS011;29744;49.078;12.878;2023-07-28T16:59:15;3.15;;;1.30;;
44078;SDS011;29744;49.078;12.878;2023-07-28T17:04:15;2.50;;;1.17;;
44078;SDS011;29744;49.078;12.878;2023-07-28T17:09:18;4.53;;;1.30;;
44078;SDS011;29744;49.078;12.878;2023-07-28T17:14:18;2.58;;;1.35;;
44078;SDS011;29744;49.078;12.878;2023-07-28T17:19:18;3.15;;;1.55;;
44078;SDS011;29744;49.078;12.878;2023-07-28T17:24:18;3.75;;;1.20;;
44078;SDS011;29744;49.078;12.878;2023-07-28T17:29:19;3.20;;;1.25;;
44078;SDS011;29744;49.078;12.878;2023-07-28T17:34:19;2.35;;;1.33;;
44078;SDS011;29744;49.078;12.878;2023-07-28T17:39:19;3.10;;;1.40;;
44078;SDS011;29744;49.078;12.878;2023-07-28T17:44:20;2.80;;;1.13;;
44078;SDS011;29744;49.078;12.878;2023-07-28T17:49:20;3.13;;;1.38;;
44078;SDS011;29744;49.078;12.878;2023-07-28T17:54:20;3.15;;;1.48;;
44078;SDS011;29744;49.078;12.878;2023-07-28T17:59:20;4.20;;;1.30;;
44078;SDS011;29744;49.078;12.878;2023-07-28T18:04:21;2.15;;;1.30;;
44078;SDS011;29744;49.078;12.878;2023-07-28T18:09:22;1.80;;;1.00;;
44078;SDS011;29744;49.078;12.878;2023-07-28T18:14:22;2.38;;;1.20;;
44078;SDS011;29744;49.078;12.878;2023-07-28T18:19:23;2.03;;;1.10;;
44078;SDS011;29744;49.078;12.878;2023-07-28T18:24:23;2.50;;;1.17;;
44078;SDS011;29744;49.078;12.878;2023-07-28T18:29:24;1.75;;;1.02;;
44078;SDS011;29744;49.078;12.878;2023-07-28T18:34:24;2.85;;;1.38;;
44078;SDS011;29744;49.078;12.878;2023-07-28T18:39:24;2.42;;;1.17;;
44078;SDS011;29744;49.078;12.878;2023-07-28T18:44:24;2.63;;;1.13;;
44078;SDS011;29744;49.078;12.878;2023-07-28T18:49:25;2.75;;;1.13;;
44078;SDS011;29744;49.078;12.878;2023-07-28T18:54:25;2.75;;;1.15;;
44078;SDS011;29744;49.078;12.878;2023-07-28T18:59:25;1.88;;;1.10;;
44078;SDS011;29744;49.078;12.878;2023-07-28T19:04:26;2.40;;;1.10;;
44078;SDS011;29744;49.078;12.878;2023-07-28T19:09:28;3.00;;;1.40;;
44078;SDS011;29744;49.078;12.878;2023-07-28T19:14:28;3.42;;;1.17;;
44078;SDS011;29744;49.078;12.878;2023-07-28T19:19:29;2.08;;;1.08;;
44078;SDS011;29744;49.078;12.878;2023-07-28T19:24:29;2.72;;;1.20;;
44078;SDS011;29744;49.078;12.878;2023-07-28T19:29:29;2.08;;;1.20;;
44078;SDS011;29744;49.078;12.878;2023-07-28T19:34:33;2.42;;;1.20;;
44078;SDS011;29744;49.078;12.878;2023-07-28T19:39:33;2.15;;;1.13;;
44078;SDS011;29744;49.078;12.878;2023-07-28T19:44:34;1.65;;;0.90;;
44078;SDS011;29744;49.078;12.878;2023-07-28T19:49:34;2.60;;;1.20;;
44078;SDS011;29744;49.078;12.878;2023-07-28T19:54:34;1.87;;;1.00;;
44078;SDS011;29744;49.078;12.878;2023-07-28T19:59:35;1.90;;;1.00;;
44078;SDS011;29744;49.078;12.878;2023-07-28T20:04:35;1.90;;;1.00;;
44078;SDS011;29744;49.078;12.878;2023-07-28T20:09:35;1.38;;;0.95;;
44078;SDS011;29744;49.078;12.878;2023-07-28T20:14:36;2.50;;;1.20;;
44078;SDS011;29744;49.078;12.878;2023-07-28T20:19:36;1.52;;;1.10;;
44078;SDS011;29744;49.078;12.878;2023-07-28T20:24:37;2.47;;;0.98;;
44078;SDS011;29744;49.078;12.878;2023-07-28T20:29:37;2.83;;;1.02;;
44078;SDS011;29744;49.078;12.878;2023-07-28T20:34:37;1.80;;;0.90;;
44078;SDS011;29744;49.078;12.878;2023-07-28T20:39:38;1.73;;;1.00;;
44078;SDS011;29744;49.078;12.878;2023-07-28T20:44:38;2.35;;;1.10;;
44078;SDS011;29744;49.078;12.878;2023-07-28T20:49:38;1.83;;;1.02;;
44078;SDS011;29744;49.078;12.878;2023-07-28T20:54:39;2.97;;;1.20;;
44078;SDS011;29744;49.078;12.878;2023-07-28T20:59:39;2.23;;;1.03;;
44078;SDS011;29744;49.078;12.878;2023-07-28T21:04:39;1.77;;;1.02;;
44078;SDS011;29744;49.078;12.878;2023-07-28T21:09:40;3.17;;;1.20;;
44078;SDS011;29744;49.078;12.878;2023-07-28T21:14:40;1.88;;;1.00;;
44078;SDS011;29744;49.078;12.878;2023-07-28T21:19:42;2.20;;;1.10;;
44078;SDS011;29744;49.078;12.878;2023-07-28T21:24:43;2.08;;;1.10;;
44078;SDS011;29744;49.078;12.878;2023-07-28T21:29:44;1.30;;;0.90;;
44078;SDS011;29744;49.078;12.878;2023-07-28T21:34:44;1.27;;;0.70;;
44078;SDS011;29744;49.078;12.878;2023-07-28T21:39:44;1.77;;;1.00;;
44078;SDS011;29744;49.078;12.878;2023-07-28T21:44:44;1.53;;;0.80;;
44078;SDS011;29744;49.078;12.878;2023-07-28T21:49:45;1.45;;;0.90;;
44078;SDS011;29744;49.078;12.878;2023-07-28T21:54:45;1.67;;;0.82;;
44078;SDS011;29744;49.078;12.878;2023-07-28T21:59:46;2.05;;;1.00;;
44078;SDS011;29744;49.078;12.878;2023-07-28T22:04:47;1.42;;;0.88;;
44078;SDS011;29744;49.078;12.878;2023-07-28T22:09:47;1.65;;;0.82;;
44078;SDS011;29744;49.078;12.878;2023-07-28T22:14:47;2.20;;;1.10;;
44078;SDS011;29744;49.078;12.878;2023-07-28T22:19:48;1.55;;;0.90;;
44078;SDS011;29744;49.078;12.878;2023-07-28T22:24:48;2.35;;;1.15;;
44078;SDS011;29744;49.078;12.878;2023-07-28T22:29:48;2.10;;;1.00;;
44078;SDS011;29744;49.078;12.878;2023-07-28T22:34:51;1.75;;;0.70;;
44078;SDS011;29744;49.078;12.878;2023-07-28T22:39:52;2.22;;;1.00;;
44078;SDS011;29744;49.078;12.878;2023-07-28T22:44:52;1.80;;;1.00;;
44078;SDS011;29744;49.078;12.878;2023-07-28T22:49:52;1.50;;;0.80;;
44078;SDS011;29744;49.078;12.878;2023-07-28T22:54:53;1.45;;;0.80;;
44078;SDS011;29744;49.078;12.878;2023-07-28T22:59:53;1.83;;;0.90;;
44078;SDS011;29744;49.078;12.878;2023-07-28T23:04:53;2.08;;;0.82;;
44078;SDS011;29744;49.078;12.878;2023-07-28T23:09:54;0.97;;;0.60;;
44078;SDS011;29744;49.078;12.878;2023-07-28T23:14:54;1.65;;;0.85;;
44078;SDS011;29744;49.078;12.878;2023-07-28T23:19:54;3.15;;;1.00;;
44078;SDS011;29744;49.078;12.878;2023-07-28T23:24:54;1.35;;;0.85;;
44078;SDS011;29744;49.078;12.878;2023-07-28T23:29:55;2.53;;;1.00;;
44078;SDS011;29744;49.078;12.878;2023-07-28T23:34:55;1.60;;;0.88;;
44078;SDS011;29744;49.078;12.878;2023-07-28T23:39:55;1.52;;;0.80;;
44078;SDS011;29744;49.078;12.878;2023-07-28T23:44:56;1.33;;;0.85;;
44078;SDS011;29744;49.078;12.878;2023-07-28T23:49:56;1.80;;;0.80;;
44078;SDS011;29744;49.078;12.878;2023-07-28T23:54:56;1.63;;;0.80;;
44078;SDS011;29744;49.078;12.878;2023-07-28T23:59:56;2.60;;;1.10;;
